sensor_id;sensor_type;location;lat;lon;timestamp;temperature;humidity
1083;DHT22;530;51.448;7.238;2023-09-08T00:02:13;18.00;99.90
1083;DHT22;530;51.448;7.238;2023-09-08T00:04:38;18.00;99.90
1083;DHT22;530;51.448;7.238;2023-09-08T00:07:04;18.10;99.90
1083;DHT22;530;51.448;7.238;2023-09-08T00:09:30;18.00;99.90
1083;DHT22;530;51.448;7.238;2023-09-08T00:11:59;18.00;99.90
1083;DHT22;530;51.448;7.238;2023-09-08T00:14:27;18.00;99.90
1083;DHT22;530;51.448;7.238;2023-09-08T00:16:53;18.00;99.90
1083;DHT22;530;51.448;7.238;2023-09-08T00:19:22;18.00;99.90
1083;DHT22;530;51.448;7.238;2023-09-08T00:21:48;18.00;99.90
1083;DHT22;530;51.448;7.238;2023-09-08T00:24:15;18.00;99.90
1083;DHT22;530;51.448;7.238;2023-09-08T00:26:40;17.90;99.90
1083;DHT22;530;51.448;7.238;2023-09-08T00:29:06;17.90;99.90
1083;DHT22;530;51.448;7.238;2023-09-08T00:31:32;17.90;99.90
1083;DHT22;530;51.448;7.238;2023-09-08T00:33:58;17.80;99.90
1083;DHT22;530;51.448;7.238;2023-09-08T00:36:24;17.90;99.90
1083;DHT22;530;51.448;7.238;2023-09-08T00:38:49;17.80;99.90
1083;DHT22;530;51.448;7.238;2023-09-08T00:41:15;17.80;99.90
1083;DHT22;530;51.448;7.238;2023-09-08T00:43:41;17.80;99.90
1083;DHT22;530;51.448;7.238;2023-09-08T00:46:07;17.80;99.90
1083;DHT22;530;51.448;7.238;2023-09-08T00:48:34;17.70;99.90
1083;DHT22;530;51.448;7.238;2023-09-08T00:51:00;17.70;99.90
1083;DHT22;530;51.448;7.238;2023-09-08T00:53:27;17.60;99.90
1083;DHT22;530;51.448;7.238;2023-09-08T00:55:54;17.60;99.90
1083;DHT22;530;51.448;7.238;2023-09-08T00:58:20;17.60;99.90
1083;DHT22;530;51.448;7.238;2023-09-08T01:00:45;17.50;99.90
1083;DHT22;530;51.448;7.238;2023-09-08T01:03:12;17.50;99.90
1083;DHT22;530;51.448;7.238;2023-09-08T01:05:38;17.40;99.90
1083;DHT22;530;51.448;7.238;2023-09-08T01:08:05;17.50;99.90
1083;DHT22;530;51.448;7.238;2023-09-08T01:10:31;17.40;99.90
1083;DHT22;530;51.448;7.238;2023-09-08T01:12:57;17.40;99.90
1083;DHT22;530;51.448;7.238;2023-09-08T01:15:22;17.50;99.90
1083;DHT22;530;51.448;7.238;2023-09-08T01:17:48;17.50;99.90
1083;DHT22;530;51.448;7.238;2023-09-08T01:20:22;17.50;99.90
1083;DHT22;530;51.448;7.238;2023-09-08T01:23:01;17.50;99.90
1083;DHT22;530;51.448;7.238;2023-09-08T01:25:30;17.60;99.90
1083;DHT22;530;51.448;7.238;2023-09-08T01:28:01;17.60;99.90
1083;DHT22;530;51.448;7.238;2023-09-08T01:30:29;17.60;99.90
1083;DHT22;530;51.448;7.238;2023-09-08T01:32:57;17.60;99.90
1083;DHT22;530;51.448;7.238;2023-09-08T01:35:24;17.60;99.90
1083;DHT22;530;51.448;7.238;2023-09-08T01:37:50;17.60;99.90
1083;DHT22;530;51.448;7.238;2023-09-08T01:40:16;17.50;99.90
1083;DHT22;530;51.448;7.238;2023-09-08T01:42:42;17.40;99.90
1083;DHT22;530;51.448;7.238;2023-09-08T01:45:08;17.40;99.90
1083;DHT22;530;51.448;7.238;2023-09-08T01:47:34;17.40;99.90
1083;DHT22;530;51.448;7.238;2023-09-08T01:50:01;17.40;99.90
1083;DHT22;530;51.448;7.238;2023-09-08T01:52:27;17.40;99.90
1083;DHT22;530;51.448;7.238;2023-09-08T01:54:52;17.30;99.90
1083;DHT22;530;51.448;7.238;2023-09-08T01:57:18;17.30;99.90
1083;DHT22;530;51.448;7.238;2023-09-08T01:59:44;17.20;99.90
1083;DHT22;530;51.448;7.238;2023-09-08T02:02:13;17.20;99.90
1083;DHT22;530;51.448;7.238;2023-09-08T02:04:39;17.10;99.90
1083;DHT22;530;51.448;7.238;2023-09-08T02:07:05;17.10;99.90
1083;DHT22;530;51.448;7.238;2023-09-08T02:09:35;17.10;99.90
1083;DHT22;530;51.448;7.238;2023-09-08T02:12:01;17.20;99.90
1083;DHT22;530;51.448;7.238;2023-09-08T02:14:27;17.20;99.90
1083;DHT22;530;51.448;7.238;2023-09-08T02:16:53;17.20;99.90
1083;DHT22;530;51.448;7.238;2023-09-08T02:19:19;17.20;99.90
1083;DHT22;530;51.448;7.238;2023-09-08T02:21:45;17.10;99.90
1083;DHT22;530;51.448;7.238;2023-09-08T02:24:11;17.10;99.90
1083;DHT22;530;51.448;7.238;2023-09-08T02:26:38;17.00;99.90
1083;DHT22;530;51.448;7.238;2023-09-08T02:29:04;17.00;99.90
1083;DHT22;530;51.448;7.238;2023-09-08T02:31:30;16.90;99.90
1083;DHT22;530;51.448;7.238;2023-09-08T02:33:56;16.90;99.90
1083;DHT22;530;51.448;7.238;2023-09-08T02:36:22;16.80;99.90
1083;DHT22;530;51.448;7.238;2023-09-08T02:38:54;16.80;99.90
1083;DHT22;530;51.448;7.238;2023-09-08T02:41:20;16.70;99.90
1083;DHT22;530;51.448;7.238;2023-09-08T02:43:47;16.70;99.90
1083;DHT22;530;51.448;7.238;2023-09-08T02:46:13;16.70;99.90
1083;DHT22;530;51.448;7.238;2023-09-08T02:48:39;16.70;99.90
1083;DHT22;530;51.448;7.238;2023-09-08T02:51:05;16.70;99.90
1083;DHT22;530;51.448;7.238;2023-09-08T02:53:32;16.60;99.90
1083;DHT22;530;51.448;7.238;2023-09-08T02:55:58;16.60;99.90
1083;DHT22;530;51.448;7.238;2023-09-08T02:58:24;16.60;99.90
1083;DHT22;530;51.448;7.238;2023-09-08T03:00:50;16.60;99.90
1083;DHT22;530;51.448;7.238;2023-09-08T03:03:21;16.60;99.90
1083;DHT22;530;51.448;7.238;2023-09-08T03:05:47;16.60;99.90
1083;DHT22;530;51.448;7.238;2023-09-08T03:08:13;16.70;99.90
1083;DHT22;530;51.448;7.238;2023-09-08T03:10:39;16.70;99.90
1083;DHT22;530;51.448;7.238;2023-09-08T03:13:05;16.70;99.90
1083;DHT22;530;51.448;7.238;2023-09-08T03:15:31;16.70;99.90
1083;DHT22;530;51.448;7.238;2023-09-08T03:17:57;16.70;99.90
1083;DHT22;530;51.448;7.238;2023-09-08T03:20:26;16.60;99.90
1083;DHT22;530;51.448;7.238;2023-09-08T03:22:53;16.60;99.90
1083;DHT22;530;51.448;7.238;2023-09-08T03:25:18;16.50;99.90
1083;DHT22;530;51.448;7.238;2023-09-08T03:27:44;16.50;99.90
1083;DHT22;530;51.448;7.238;2023-09-08T03:30:10;16.40;99.90
1083;DHT22;530;51.448;7.238;2023-09-08T03:32:37;16.40;99.90
1083;DHT22;530;51.448;7.238;2023-09-08T03:35:03;16.50;99.90
1083;DHT22;530;51.448;7.238;2023-09-08T03:37:34;16.50;99.90
1083;DHT22;530;51.448;7.238;2023-09-08T03:40:00;16.50;99.90
1083;DHT22;530;51.448;7.238;2023-09-08T03:42:26;16.50;99.90
1083;DHT22;530;51.448;7.238;2023-09-08T03:44:51;16.50;99.90
1083;DHT22;530;51.448;7.238;2023-09-08T03:47:17;16.40;99.90
1083;DHT22;530;51.448;7.238;2023-09-08T03:49:43;16.40;99.90
1083;DHT22;530;51.448;7.238;2023-09-08T03:52:08;16.40;99.90
1083;DHT22;530;51.448;7.238;2023-09-08T03:54:34;16.40;99.90
1083;DHT22;530;51.448;7.238;2023-09-08T03:57:00;16.50;99.90
1083;DHT22;530;51.448;7.238;2023-09-08T03:59:25;16.50;99.90
1083;DHT22;530;51.448;7.238;2023-09-08T04:01:51;16.50;99.90
1083;DHT22;530;51.448;7.238;2023-09-08T04:04:17;16.40;99.90
1083;DHT22;530;51.448;7.238;2023-09-08T04:06:45;16.40;99.90
1083;DHT22;530;51.448;7.238;2023-09-08T04:09:11;16.40;99.90
1083;DHT22;530;51.448;7.238;2023-09-08T04:11:36;16.40;99.90
1083;DHT22;530;51.448;7.238;2023-09-08T04:14:02;16.40;99.90
1083;DHT22;530;51.448;7.238;2023-09-08T04:16:28;16.40;99.90
1083;DHT22;530;51.448;7.238;2023-09-08T04:18:54;16.50;99.90
1083;DHT22;530;51.448;7.238;2023-09-08T04:21:20;16.50;99.90
1083;DHT22;530;51.448;7.238;2023-09-08T04:23:46;16.60;99.90
1083;DHT22;530;51.448;7.238;2023-09-08T04:26:12;16.60;99.90
1083;DHT22;530;51.448;7.238;2023-09-08T04:28:38;16.70;99.90
1083;DHT22;530;51.448;7.238;2023-09-08T04:31:04;16.70;99.90
1083;DHT22;530;51.448;7.238;2023-09-08T04:33:30;16.60;99.90
1083;DHT22;530;51.448;7.238;2023-09-08T04:35:56;16.60;99.90
1083;DHT22;530;51.448;7.238;2023-09-08T04:38:21;16.60;99.90
1083;DHT22;530;51.448;7.238;2023-09-08T04:40:47;16.50;99.90
1083;DHT22;530;51.448;7.238;2023-09-08T04:43:13;16.60;99.90
1083;DHT22;530;51.448;7.238;2023-09-08T04:45:38;16.60;99.90
1083;DHT22;530;51.448;7.238;2023-09-08T04:48:05;16.60;99.90
1083;DHT22;530;51.448;7.238;2023-09-08T04:50:30;16.70;99.90
1083;DHT22;530;51.448;7.238;2023-09-08T04:52:56;16.70;99.90
1083;DHT22;530;51.448;7.238;2023-09-08T04:55:22;16.70;99.90
1083;DHT22;530;51.448;7.238;2023-09-08T04:57:48;16.70;99.90
1083;DHT22;530;51.448;7.238;2023-09-08T05:00:14;16.70;99.90
1083;DHT22;530;51.448;7.238;2023-09-08T05:02:39;16.70;99.90
1083;DHT22;530;51.448;7.238;2023-09-08T05:05:05;16.60;99.90
1083;DHT22;530;51.448;7.238;2023-09-08T05:07:31;16.70;99.90
1083;DHT22;530;51.448;7.238;2023-09-08T05:09:57;16.60;99.90
1083;DHT22;530;51.448;7.238;2023-09-08T05:12:22;16.50;99.90
1083;DHT22;530;51.448;7.238;2023-09-08T05:14:48;16.50;99.90
1083;DHT22;530;51.448;7.238;2023-09-08T05:17:14;16.40;99.90
1083;DHT22;530;51.448;7.238;2023-09-08T05:19:40;16.40;99.90
1083;DHT22;530;51.448;7.238;2023-09-08T05:22:06;16.30;99.90
1083;DHT22;530;51.448;7.238;2023-09-08T05:24:34;16.30;99.90
1083;DHT22;530;51.448;7.238;2023-09-08T05:27:00;16.40;99.90
1083;DHT22;530;51.448;7.238;2023-09-08T05:29:26;16.40;99.90
1083;DHT22;530;51.448;7.238;2023-09-08T05:31:51;16.50;99.90
1083;DHT22;530;51.448;7.238;2023-09-08T05:34:17;16.60;99.90
1083;DHT22;530;51.448;7.238;2023-09-08T05:36:43;16.70;99.90
1083;DHT22;530;51.448;7.238;2023-09-08T05:39:09;16.80;99.90
1083;DHT22;530;51.448;7.238;2023-09-08T05:41:35;16.90;99.90
1083;DHT22;530;51.448;7.238;2023-09-08T05:44:01;17.00;99.90
1083;DHT22;530;51.448;7.238;2023-09-08T05:46:27;17.00;99.90
1083;DHT22;530;51.448;7.238;2023-09-08T05:48:52;17.10;99.90
1083;DHT22;530;51.448;7.238;2023-09-08T05:51:18;17.20;99.90
1083;DHT22;530;51.448;7.238;2023-09-08T05:53:44;17.30;99.90
1083;DHT22;530;51.448;7.238;2023-09-08T05:56:10;17.40;99.90
1083;DHT22;530;51.448;7.238;2023-09-08T05:58:35;17.50;99.90
1083;DHT22;530;51.448;7.238;2023-09-08T06:01:02;17.70;99.90
1083;DHT22;530;51.448;7.238;2023-09-08T06:03:29;17.80;99.90
1083;DHT22;530;51.448;7.238;2023-09-08T06:05:56;17.90;99.90
1083;DHT22;530;51.448;7.238;2023-09-08T06:08:22;18.10;99.90
1083;DHT22;530;51.448;7.238;2023-09-08T06:10:48;18.30;99.90
1083;DHT22;530;51.448;7.238;2023-09-08T06:13:13;18.50;99.90
1083;DHT22;530;51.448;7.238;2023-09-08T06:15:39;18.60;99.90
1083;DHT22;530;51.448;7.238;2023-09-08T06:18:05;18.80;99.90
1083;DHT22;530;51.448;7.238;2023-09-08T06:20:31;19.00;99.90
1083;DHT22;530;51.448;7.238;2023-09-08T06:22:56;19.10;99.90
1083;DHT22;530;51.448;7.238;2023-09-08T06:25:22;19.30;99.90
1083;DHT22;530;51.448;7.238;2023-09-08T06:27:48;19.50;99.90
1083;DHT22;530;51.448;7.238;2023-09-08T06:30:14;19.70;99.90
1083;DHT22;530;51.448;7.238;2023-09-08T06:32:42;19.80;99.90
1083;DHT22;530;51.448;7.238;2023-09-08T06:35:08;20.00;99.90
1083;DHT22;530;51.448;7.238;2023-09-08T06:37:38;20.20;99.90
1083;DHT22;530;51.448;7.238;2023-09-08T06:40:05;20.30;99.90
1083;DHT22;530;51.448;7.238;2023-09-08T06:42:31;20.50;99.90
1083;DHT22;530;51.448;7.238;2023-09-08T06:44:58;20.70;99.90
1083;DHT22;530;51.448;7.238;2023-09-08T06:47:24;20.80;99.90
1083;DHT22;530;51.448;7.238;2023-09-08T06:49:50;20.90;99.90
1083;DHT22;530;51.448;7.238;2023-09-08T06:52:16;21.00;99.90
1083;DHT22;530;51.448;7.238;2023-09-08T06:54:42;21.10;99.90
1083;DHT22;530;51.448;7.238;2023-09-08T06:57:08;21.30;99.90
1083;DHT22;530;51.448;7.238;2023-09-08T06:59:33;21.40;99.90
1083;DHT22;530;51.448;7.238;2023-09-08T07:01:59;21.50;99.90
1083;DHT22;530;51.448;7.238;2023-09-08T07:04:25;21.60;99.90
1083;DHT22;530;51.448;7.238;2023-09-08T07:06:50;21.70;99.90
1083;DHT22;530;51.448;7.238;2023-09-08T07:09:20;21.80;99.90
1083;DHT22;530;51.448;7.238;2023-09-08T07:11:46;21.90;99.90
1083;DHT22;530;51.448;7.238;2023-09-08T07:14:12;21.90;99.90
1083;DHT22;530;51.448;7.238;2023-09-08T07:16:38;22.00;99.90
1083;DHT22;530;51.448;7.238;2023-09-08T07:19:05;22.00;99.90
1083;DHT22;530;51.448;7.238;2023-09-08T07:21:30;22.10;99.90
1083;DHT22;530;51.448;7.238;2023-09-08T07:23:56;22.10;99.90
1083;DHT22;530;51.448;7.238;2023-09-08T07:26:22;22.10;99.90
1083;DHT22;530;51.448;7.238;2023-09-08T07:28:47;22.10;99.90
1083;DHT22;530;51.448;7.238;2023-09-08T07:31:14;22.10;99.90
1083;DHT22;530;51.448;7.238;2023-09-08T07:33:40;22.20;99.90
1083;DHT22;530;51.448;7.238;2023-09-08T07:36:07;22.20;99.90
1083;DHT22;530;51.448;7.238;2023-09-08T07:38:33;22.30;99.90
1083;DHT22;530;51.448;7.238;2023-09-08T07:41:00;22.30;99.90
1083;DHT22;530;51.448;7.238;2023-09-08T07:43:27;22.40;99.90
1083;DHT22;530;51.448;7.238;2023-09-08T07:45:53;22.50;99.90
1083;DHT22;530;51.448;7.238;2023-09-08T07:48:18;22.50;99.90
1083;DHT22;530;51.448;7.238;2023-09-08T07:50:44;22.60;99.90
1083;DHT22;530;51.448;7.238;2023-09-08T07:53:10;22.60;99.90
1083;DHT22;530;51.448;7.238;2023-09-08T07:55:36;22.70;99.90
1083;DHT22;530;51.448;7.238;2023-09-08T07:58:02;22.80;99.90
1083;DHT22;530;51.448;7.238;2023-09-08T08:00:31;22.80;99.90
1083;DHT22;530;51.448;7.238;2023-09-08T08:02:58;22.90;99.90
1083;DHT22;530;51.448;7.238;2023-09-08T08:05:24;23.00;99.90
1083;DHT22;530;51.448;7.238;2023-09-08T08:07:50;23.00;99.90
1083;DHT22;530;51.448;7.238;2023-09-08T08:10:17;23.10;99.90
1083;DHT22;530;51.448;7.238;2023-09-08T08:12:43;23.10;99.90
1083;DHT22;530;51.448;7.238;2023-09-08T08:15:09;23.20;99.90
1083;DHT22;530;51.448;7.238;2023-09-08T08:17:36;23.30;99.90
1083;DHT22;530;51.448;7.238;2023-09-08T08:20:04;23.30;99.90
1083;DHT22;530;51.448;7.238;2023-09-08T08:22:36;23.40;99.90
1083;DHT22;530;51.448;7.238;2023-09-08T08:25:02;23.40;99.90
1083;DHT22;530;51.448;7.238;2023-09-08T08:27:28;23.40;99.90
1083;DHT22;530;51.448;7.238;2023-09-08T08:29:57;23.50;99.90
1083;DHT22;530;51.448;7.238;2023-09-08T08:32:25;23.50;99.90
1083;DHT22;530;51.448;7.238;2023-09-08T08:34:51;23.60;99.90
1083;DHT22;530;51.448;7.238;2023-09-08T08:37:17;23.60;99.90
1083;DHT22;530;51.448;7.238;2023-09-08T08:39:43;23.60;99.90
1083;DHT22;530;51.448;7.238;2023-09-08T08:42:12;23.70;99.90
1083;DHT22;530;51.448;7.238;2023-09-08T08:44:38;23.70;99.90
1083;DHT22;530;51.448;7.238;2023-09-08T08:47:07;23.80;99.90
1083;DHT22;530;51.448;7.238;2023-09-08T08:49:33;23.90;99.90
1083;DHT22;530;51.448;7.238;2023-09-08T08:51:59;23.90;99.90
1083;DHT22;530;51.448;7.238;2023-09-08T08:54:29;24.00;99.90
1083;DHT22;530;51.448;7.238;2023-09-08T08:56:55;24.10;99.90
1083;DHT22;530;51.448;7.238;2023-09-08T08:59:21;24.10;99.90
1083;DHT22;530;51.448;7.238;2023-09-08T09:01:48;24.20;99.90
1083;DHT22;530;51.448;7.238;2023-09-08T09:04:16;24.20;99.90
1083;DHT22;530;51.448;7.238;2023-09-08T09:06:42;24.30;99.90
1083;DHT22;530;51.448;7.238;2023-09-08T09:09:07;24.30;99.90
1083;DHT22;530;51.448;7.238;2023-09-08T09:11:33;24.50;99.90
1083;DHT22;530;51.448;7.238;2023-09-08T09:13:59;24.50;99.90
1083;DHT22;530;51.448;7.238;2023-09-08T09:16:25;24.70;99.90
1083;DHT22;530;51.448;7.238;2023-09-08T09:18:56;24.80;99.90
1083;DHT22;530;51.448;7.238;2023-09-08T09:21:22;24.90;99.90
1083;DHT22;530;51.448;7.238;2023-09-08T09:23:47;25.00;99.90
1083;DHT22;530;51.448;7.238;2023-09-08T09:26:24;25.00;99.90
1083;DHT22;530;51.448;7.238;2023-09-08T09:28:50;25.20;99.90
1083;DHT22;530;51.448;7.238;2023-09-08T09:31:18;25.30;99.90
1083;DHT22;530;51.448;7.238;2023-09-08T09:33:44;25.50;99.90
1083;DHT22;530;51.448;7.238;2023-09-08T09:36:20;25.60;99.90
1083;DHT22;530;51.448;7.238;2023-09-08T09:38:47;25.70;99.90
1083;DHT22;530;51.448;7.238;2023-09-08T09:41:12;25.80;99.90
1083;DHT22;530;51.448;7.238;2023-09-08T09:43:38;26.00;99.90
1083;DHT22;530;51.448;7.238;2023-09-08T09:46:07;26.10;99.90
1083;DHT22;530;51.448;7.238;2023-09-08T09:48:35;26.20;99.90
1083;DHT22;530;51.448;7.238;2023-09-08T09:51:15;26.30;99.90
1083;DHT22;530;51.448;7.238;2023-09-08T09:53:41;26.40;99.90
1083;DHT22;530;51.448;7.238;2023-09-08T09:56:08;26.50;99.90
1083;DHT22;530;51.448;7.238;2023-09-08T09:58:35;26.70;99.90
1083;DHT22;530;51.448;7.238;2023-09-08T10:01:02;26.70;99.80
1083;DHT22;530;51.448;7.238;2023-09-08T10:03:29;26.80;99.20
1083;DHT22;530;51.448;7.238;2023-09-08T10:05:56;26.90;98.70
1083;DHT22;530;51.448;7.238;2023-09-08T10:08:22;26.80;98.60
1083;DHT22;530;51.448;7.238;2023-09-08T10:10:48;26.90;99.40
1083;DHT22;530;51.448;7.238;2023-09-08T10:13:23;27.00;99.10
1083;DHT22;530;51.448;7.238;2023-09-08T10:15:53;27.10;98.80
1083;DHT22;530;51.448;7.238;2023-09-08T10:18:21;27.10;98.00
1083;DHT22;530;51.448;7.238;2023-09-08T10:20:48;27.20;98.30
1083;DHT22;530;51.448;7.238;2023-09-08T10:23:31;27.20;98.20
1083;DHT22;530;51.448;7.238;2023-09-08T10:26:02;27.30;98.60
1083;DHT22;530;51.448;7.238;2023-09-08T10:28:31;27.40;98.10
1083;DHT22;530;51.448;7.238;2023-09-08T10:30:58;27.40;97.50
1083;DHT22;530;51.448;7.238;2023-09-08T10:33:25;27.40;97.00
1083;DHT22;530;51.448;7.238;2023-09-08T10:35:51;27.40;96.40
1083;DHT22;530;51.448;7.238;2023-09-08T10:38:30;27.50;96.90
1083;DHT22;530;51.448;7.238;2023-09-08T10:43:42;27.60;97.70
1083;DHT22;530;51.448;7.238;2023-09-08T10:46:21;27.70;97.90
1083;DHT22;530;51.448;7.238;2023-09-08T10:48:47;27.80;96.40
1083;DHT22;530;51.448;7.238;2023-09-08T10:51:13;27.80;96.90
1083;DHT22;530;51.448;7.238;2023-09-08T10:53:39;27.80;96.40
1083;DHT22;530;51.448;7.238;2023-09-08T10:56:05;27.90;97.00
1083;DHT22;530;51.448;7.238;2023-09-08T10:58:33;27.90;96.90
1083;DHT22;530;51.448;7.238;2023-09-08T11:01:02;27.90;96.70
1083;DHT22;530;51.448;7.238;2023-09-08T11:06:08;28.00;96.80
1083;DHT22;530;51.448;7.238;2023-09-08T11:08:41;28.10;96.90
1083;DHT22;530;51.448;7.238;2023-09-08T11:11:09;28.20;96.20
1083;DHT22;530;51.448;7.238;2023-09-08T11:13:35;28.20;95.40
1083;DHT22;530;51.448;7.238;2023-09-08T11:16:01;28.20;94.60
1083;DHT22;530;51.448;7.238;2023-09-08T11:18:31;28.20;95.40
1083;DHT22;530;51.448;7.238;2023-09-08T11:21:00;28.20;94.70
1083;DHT22;530;51.448;7.238;2023-09-08T11:23:27;28.20;95.30
1083;DHT22;530;51.448;7.238;2023-09-08T11:25:53;28.20;95.30
1083;DHT22;530;51.448;7.238;2023-09-08T11:28:21;28.20;95.20
1083;DHT22;530;51.448;7.238;2023-09-08T11:30:48;28.30;95.60
1083;DHT22;530;51.448;7.238;2023-09-08T11:33:14;28.40;95.60
1083;DHT22;530;51.448;7.238;2023-09-08T11:35:40;28.40;95.30
1083;DHT22;530;51.448;7.238;2023-09-08T11:38:10;28.50;94.40
1083;DHT22;530;51.448;7.238;2023-09-08T11:40:36;28.60;94.70
1083;DHT22;530;51.448;7.238;2023-09-08T11:43:03;28.60;95.30
1083;DHT22;530;51.448;7.238;2023-09-08T11:45:30;28.60;93.70
1083;DHT22;530;51.448;7.238;2023-09-08T11:47:57;28.60;93.90
1083;DHT22;530;51.448;7.238;2023-09-08T11:50:23;28.60;94.10
1083;DHT22;530;51.448;7.238;2023-09-08T11:52:51;28.60;94.60
1083;DHT22;530;51.448;7.238;2023-09-08T11:55:18;28.60;94.60
1083;DHT22;530;51.448;7.238;2023-09-08T11:57:46;28.70;94.90
1083;DHT22;530;51.448;7.238;2023-09-08T12:00:13;28.80;94.90
1083;DHT22;530;51.448;7.238;2023-09-08T12:02:44;28.80;94.70
1083;DHT22;530;51.448;7.238;2023-09-08T12:05:19;28.80;95.20
1083;DHT22;530;51.448;7.238;2023-09-08T12:07:46;28.90;94.10
1083;DHT22;530;51.448;7.238;2023-09-08T12:10:11;28.90;95.10
1083;DHT22;530;51.448;7.238;2023-09-08T12:12:44;28.90;94.90
1083;DHT22;530;51.448;7.238;2023-09-08T12:15:10;29.00;94.50
1083;DHT22;530;51.448;7.238;2023-09-08T12:17:49;28.90;94.90
1083;DHT22;530;51.448;7.238;2023-09-08T12:20:16;29.00;94.90
1083;DHT22;530;51.448;7.238;2023-09-08T12:22:51;29.00;94.30
1083;DHT22;530;51.448;7.238;2023-09-08T12:25:18;29.00;95.40
1083;DHT22;530;51.448;7.238;2023-09-08T12:27:50;29.10;95.20
1083;DHT22;530;51.448;7.238;2023-09-08T12:30:17;29.10;94.60
1083;DHT22;530;51.448;7.238;2023-09-08T12:32:46;29.10;94.50
1083;DHT22;530;51.448;7.238;2023-09-08T12:35:13;29.20;94.30
1083;DHT22;530;51.448;7.238;2023-09-08T12:37:39;29.20;94.00
1083;DHT22;530;51.448;7.238;2023-09-08T12:40:05;29.20;93.00
1083;DHT22;530;51.448;7.238;2023-09-08T12:42:31;29.20;92.70
1083;DHT22;530;51.448;7.238;2023-09-08T12:44:57;29.20;93.30
1083;DHT22;530;51.448;7.238;2023-09-08T12:47:23;29.20;91.80
1083;DHT22;530;51.448;7.238;2023-09-08T12:49:48;29.10;92.70
1083;DHT22;530;51.448;7.238;2023-09-08T12:52:14;29.10;93.20
1083;DHT22;530;51.448;7.238;2023-09-08T12:54:40;29.20;92.40
1083;DHT22;530;51.448;7.238;2023-09-08T12:57:06;29.20;91.50
1083;DHT22;530;51.448;7.238;2023-09-08T12:59:31;29.20;92.70
1083;DHT22;530;51.448;7.238;2023-09-08T13:01:57;29.20;92.10
1083;DHT22;530;51.448;7.238;2023-09-08T13:04:23;29.20;92.00
1083;DHT22;530;51.448;7.238;2023-09-08T13:06:50;29.30;90.90
1083;DHT22;530;51.448;7.238;2023-09-08T13:09:16;29.30;90.20
1083;DHT22;530;51.448;7.238;2023-09-08T13:11:42;29.30;90.90
1083;DHT22;530;51.448;7.238;2023-09-08T13:14:08;29.30;90.90
1083;DHT22;530;51.448;7.238;2023-09-08T13:16:34;29.30;91.00
1083;DHT22;530;51.448;7.238;2023-09-08T13:19:00;29.30;88.70
1083;DHT22;530;51.448;7.238;2023-09-08T13:21:25;29.30;89.70
1083;DHT22;530;51.448;7.238;2023-09-08T13:23:51;29.20;88.10
1083;DHT22;530;51.448;7.238;2023-09-08T13:26:17;29.20;88.00
1083;DHT22;530;51.448;7.238;2023-09-08T13:28:42;29.30;90.10
1083;DHT22;530;51.448;7.238;2023-09-08T13:31:08;29.30;88.90
1083;DHT22;530;51.448;7.238;2023-09-08T13:33:34;29.30;86.40
1083;DHT22;530;51.448;7.238;2023-09-08T13:36:00;29.30;86.40
1083;DHT22;530;51.448;7.238;2023-09-08T13:38:25;29.30;87.50
1083;DHT22;530;51.448;7.238;2023-09-08T13:40:51;29.30;86.90
1083;DHT22;530;51.448;7.238;2023-09-08T13:43:18;29.30;86.20
1083;DHT22;530;51.448;7.238;2023-09-08T13:45:44;29.20;87.20
1083;DHT22;530;51.448;7.238;2023-09-08T13:48:10;29.20;86.40
1083;DHT22;530;51.448;7.238;2023-09-08T13:50:38;29.20;87.10
1083;DHT22;530;51.448;7.238;2023-09-08T13:53:04;29.20;87.80
1083;DHT22;530;51.448;7.238;2023-09-08T13:55:30;29.10;89.90
1083;DHT22;530;51.448;7.238;2023-09-08T13:57:55;29.10;88.10
1083;DHT22;530;51.448;7.238;2023-09-08T14:00:21;29.10;88.70
1083;DHT22;530;51.448;7.238;2023-09-08T14:02:47;29.10;88.50
1083;DHT22;530;51.448;7.238;2023-09-08T14:05:12;29.10;91.50
1083;DHT22;530;51.448;7.238;2023-09-08T14:07:38;29.00;90.00
1083;DHT22;530;51.448;7.238;2023-09-08T14:10:04;29.00;90.10
1083;DHT22;530;51.448;7.238;2023-09-08T14:12:34;29.00;90.50
1083;DHT22;530;51.448;7.238;2023-09-08T14:14:59;29.00;90.50
1083;DHT22;530;51.448;7.238;2023-09-08T14:17:25;29.00;91.10
1083;DHT22;530;51.448;7.238;2023-09-08T14:19:51;29.00;90.70
1083;DHT22;530;51.448;7.238;2023-09-08T14:22:17;29.00;90.80
1083;DHT22;530;51.448;7.238;2023-09-08T14:24:42;29.00;91.50
1083;DHT22;530;51.448;7.238;2023-09-08T14:27:08;29.00;91.20
1083;DHT22;530;51.448;7.238;2023-09-08T14:29:34;29.00;90.90
1083;DHT22;530;51.448;7.238;2023-09-08T14:32:00;29.00;90.40
1083;DHT22;530;51.448;7.238;2023-09-08T14:34:26;29.00;90.60
1083;DHT22;530;51.448;7.238;2023-09-08T14:36:51;29.10;91.40
1083;DHT22;530;51.448;7.238;2023-09-08T14:39:18;29.00;91.40
1083;DHT22;530;51.448;7.238;2023-09-08T14:41:48;29.00;92.20
1083;DHT22;530;51.448;7.238;2023-09-08T14:44:15;29.00;91.30
1083;DHT22;530;51.448;7.238;2023-09-08T14:46:41;29.00;91.10
1083;DHT22;530;51.448;7.238;2023-09-08T14:49:07;29.00;92.00
1083;DHT22;530;51.448;7.238;2023-09-08T14:51:32;29.00;92.00
1083;DHT22;530;51.448;7.238;2023-09-08T14:53:58;29.10;91.60
1083;DHT22;530;51.448;7.238;2023-09-08T14:56:24;29.10;92.00
1083;DHT22;530;51.448;7.238;2023-09-08T14:58:49;29.00;92.10
1083;DHT22;530;51.448;7.238;2023-09-08T15:01:15;29.10;91.70
1083;DHT22;530;51.448;7.238;2023-09-08T15:03:41;29.10;91.00
1083;DHT22;530;51.448;7.238;2023-09-08T15:06:07;29.10;91.20
1083;DHT22;530;51.448;7.238;2023-09-08T15:08:34;29.00;91.70
1083;DHT22;530;51.448;7.238;2023-09-08T15:11:00;29.00;90.80
1083;DHT22;530;51.448;7.238;2023-09-08T15:13:26;29.00;90.40
1083;DHT22;530;51.448;7.238;2023-09-08T15:15:51;29.00;90.60
1083;DHT22;530;51.448;7.238;2023-09-08T15:18:17;28.90;91.80
1083;DHT22;530;51.448;7.238;2023-09-08T15:20:54;28.90;92.70
1083;DHT22;530;51.448;7.238;2023-09-08T15:23:20;28.90;91.50
1083;DHT22;530;51.448;7.238;2023-09-08T15:25:56;28.90;91.80
1083;DHT22;530;51.448;7.238;2023-09-08T15:28:23;28.90;91.80
1083;DHT22;530;51.448;7.238;2023-09-08T15:30:50;28.90;91.60
1083;DHT22;530;51.448;7.238;2023-09-08T15:33:16;28.80;92.60
1083;DHT22;530;51.448;7.238;2023-09-08T15:35:43;28.80;92.40
1083;DHT22;530;51.448;7.238;2023-09-08T15:38:09;28.80;91.80
1083;DHT22;530;51.448;7.238;2023-09-08T15:40:37;28.80;92.80
1083;DHT22;530;51.448;7.238;2023-09-08T15:43:03;28.80;92.80
1083;DHT22;530;51.448;7.238;2023-09-08T15:45:28;28.70;93.30
1083;DHT22;530;51.448;7.238;2023-09-08T15:47:54;28.70;93.70
1083;DHT22;530;51.448;7.238;2023-09-08T15:50:20;28.70;93.70
1083;DHT22;530;51.448;7.238;2023-09-08T15:52:45;28.70;92.60
1083;DHT22;530;51.448;7.238;2023-09-08T15:55:11;28.60;92.70
1083;DHT22;530;51.448;7.238;2023-09-08T15:57:37;28.60;92.60
1083;DHT22;530;51.448;7.238;2023-09-08T16:00:03;28.60;92.80
1083;DHT22;530;51.448;7.238;2023-09-08T16:02:29;28.50;93.30
1083;DHT22;530;51.448;7.238;2023-09-08T16:04:55;28.50;94.10
1083;DHT22;530;51.448;7.238;2023-09-08T16:07:22;28.50;93.40
1083;DHT22;530;51.448;7.238;2023-09-08T16:09:48;28.50;93.90
1083;DHT22;530;51.448;7.238;2023-09-08T16:12:13;28.50;93.10
1083;DHT22;530;51.448;7.238;2023-09-08T16:14:39;28.50;93.30
1083;DHT22;530;51.448;7.238;2023-09-08T16:17:04;28.40;93.70
1083;DHT22;530;51.448;7.238;2023-09-08T16:19:32;28.40;94.10